| time (UTC) | temp F | wind direction | speed MPH | gust MPH | rain 1hr in | rain 24hr in | rain mn in | humidity % | barometer mb |
| 20260507204528 | 57 | 0 | 0.0 | 2.0 | 0.00 | 0.00 | 0.00 | 82 | 1015.0 |
| 20260507203026 | 58 | 0 | 1.0 | 4.0 | 0.00 | 0.00 | 0.00 | 81 | 1015.0 |
| 20260507201525 | 58 | 0 | 0.0 | 4.0 | 0.00 | 0.00 | 0.00 | 81 | 1015.2 |
| 20260507200028 | 58 | 28 | 1.0 | 4.0 | 0.00 | 0.00 | 0.00 | 82 | 1015.3 |
| 20260507194540 | 58 | 39 | 0.0 | 4.0 | 0.00 | 0.00 | 0.00 | 83 | 1015.4 |
| 20260507193032 | 58 | 301 | 0.0 | 2.0 | 0.00 | 0.00 | 0.00 | 84 | 1015.1 |
| 20260507191526 | 58 | 301 | 0.0 | 2.0 | 0.00 | 0.00 | 0.00 | 83 | 1015.0 |
| 20260507190026 | 58 | 290 | 0.0 | 2.0 | 0.00 | 0.00 | 0.00 | 82 | 1014.8 |
| 20260507184527 | 59 | 0 | 0.0 | 3.0 | 0.00 | 0.00 | 0.00 | 82 | 1014.6 |
| 20260507183034 | 59 | 0 | 0.0 | 1.0 | 0.00 | 0.00 | 0.00 | 80 | 1014.6 |
| 20260507181528 | 59 | 0 | 0.0 | 1.0 | 0.00 | 0.00 | 0.00 | 80 | 1014.6 |
| 20260507180028 | 60 | 0 | 0.0 | 2.0 | 0.00 | 0.00 | 0.00 | 79 | 1014.7 |
| 20260507174535 | 60 | 0 | 1.0 | 4.0 | 0.00 | 0.00 | 0.00 | 78 | 1014.5 |
| 20260507173035 | 60 | 50 | 0.0 | 2.0 | 0.00 | 0.00 | 0.00 | 75 | 1014.7 |
| 20260507171527 | 61 | 332 | 1.0 | 5.0 | 0.00 | 0.00 | 0.00 | 73 | 1014.5 |
| 20260507170025 | 62 | 248 | 0.0 | 4.0 | 0.00 | 0.00 | 0.00 | 72 | 1014.5 |
| 20260507164526 | 62 | 288 | 1.0 | 8.0 | 0.00 | 0.00 | 0.00 | 72 | 1014.6 |
| 20260507163025 | 63 | 273 | 1.0 | 5.0 | 0.00 | 0.00 | 0.00 | 74 | 1014.4 |
| 20260507161535 | 64 | 252 | 1.0 | 3.0 | 0.00 | 0.00 | 0.00 | 73 | 1014.5 |
| 20260507160028 | 65 | 321 | 1.0 | 5.0 | 0.00 | 0.00 | 0.00 | 72 | 1014.3 |
| 20260507154532 | 66 | 0 | 1.0 | 4.0 | 0.00 | 0.00 | 0.00 | 71 | 1014.4 |
| 20260507153038 | 67 | 13 | 1.0 | 5.0 | 0.00 | 0.00 | 0.00 | 71 | 1014.5 |
| 20260507151526 | 66 | 339 | 4.0 | 9.0 | 0.00 | 0.00 | 0.00 | 72 | 1014.5 |
| 20260507150027 | 68 | 295 | 1.0 | 3.0 | 0.00 | 0.00 | 0.00 | 70 | 1014.2 |
| 20260507144526 | 69 | 264 | 1.0 | 5.0 | 0.00 | 0.00 | 0.00 | 69 | 1014.1 |
| 20260507143027 | 70 | 0 | 1.0 | 3.0 | 0.00 | 0.00 | 0.00 | 68 | 1014.1 |
| 20260507141528 | 70 | 334 | 1.0 | 4.0 | 0.00 | 0.00 | 0.00 | 65 | 1014.1 |
| 20260507140030 | 72 | 285 | 2.0 | 4.0 | 0.00 | 0.00 | 0.00 | 61 | 1014.2 |
| 20260507134531 | 72 | 274 | 1.0 | 5.0 | 0.00 | 0.00 | 0.00 | 55 | 1014.2 |
| 20260507133028 | 72 | 283 | 2.0 | 6.0 | 0.00 | 0.00 | 0.00 | 56 | 1014.4 |
| 20260507131527 | 72 | 287 | 1.0 | 5.0 | 0.00 | 0.00 | 0.00 | 53 | 1014.4 |
| 20260507130036 | 71 | 310 | 0.0 | 3.0 | 0.00 | 0.00 | 0.00 | 54 | 1014.6 |
| 20260507124529 | 72 | 219 | 2.0 | 4.0 | 0.00 | 0.00 | 0.00 | 52 | 1014.7 |
| 20260507123026 | 72 | 288 | 3.0 | 8.0 | 0.00 | 0.00 | 0.00 | 53 | 1014.7 |
| 20260507121526 | 73 | 179 | 2.0 | 9.0 | 0.00 | 0.00 | 0.00 | 51 | 1014.9 |
| 20260507120027 | 72 | 213 | 2.0 | 5.0 | 0.00 | 0.00 | 0.00 | 51 | 1014.9 |
| 20260507114525 | 71 | 286 | 3.0 | 10.0 | 0.00 | 0.00 | 0.00 | 48 | 1015.0 |
| 20260507113026 | 71 | 214 | 2.0 | 6.0 | 0.00 | 0.00 | 0.00 | 52 | 1015.3 |
| 20260507111528 | 71 | 283 | 2.0 | 7.0 | 0.00 | 0.00 | 0.00 | 54 | 1015.3 |
| 20260507103030 | 69 | 51 | 1.0 | 4.0 | 0.00 | 0.00 | 0.00 | 64 | 1015.2 |
| 20260507083028 | 64 | 281 | 0.0 | 2.0 | 0.00 | 0.00 | 0.00 | 74 | 1015.7 |
| 20260507081527 | 62 | 0 | 0.0 | 2.0 | 0.00 | 0.00 | 0.00 | 79 | 1015.8 |
| 20260507080036 | 60 | 274 | 0.0 | 2.0 | 0.00 | 0.00 | 0.00 | 79 | 1015.5 |
| 20260507074528 | 59 | 0 | 0.0 | 1.0 | 0.00 | 0.00 | 0.00 | 82 | 1015.5 |
| 20260507073029 | 58 | 278 | 1.0 | 2.0 | 0.00 | 0.00 | 0.00 | 82 | 1015.4 |
| 20260507071556 | 58 | 0 | 0.0 | 1.0 | 0.00 | 0.00 | 0.00 | 83 | 1015.5 |
| 20260507070030 | 57 | 0 | 0.0 | 1.0 | 0.00 | 0.00 | 0.00 | 85 | 1015.6 |
| 20260507064527 | 57 | 276 | 0.0 | 1.0 | 0.00 | 0.00 | 0.00 | 84 | 1015.6 |
| 20260507063025 | 57 | 4 | 0.0 | 1.0 | 0.00 | 0.00 | 0.00 | 85 | 1015.7 |
| 20260507061529 | 57 | 0 | 0.0 | 0.0 | 0.00 | 0.00 | 0.00 | 84 | 1015.6 |
| 20260507060030 | 57 | 19 | 0.0 | 1.0 | 0.00 | 0.00 | 0.00 | 85 | 1015.5 |
| 20260507054526 | 56 | 0 | 0.0 | 1.0 | 0.00 | 0.00 | 0.00 | 83 | 1015.4 |
| 20260507053032 | 56 | 34 | 0.0 | 2.0 | 0.00 | 0.00 | 0.00 | 85 | 1015.3 |
| 20260507051538 | 56 | 22 | 0.0 | 2.0 | 0.00 | 0.00 | 0.00 | 85 | 1015.2 |
| 20260507050035 | 57 | 96 | 1.0 | 2.0 | 0.00 | 0.00 | 0.00 | 80 | 1014.9 |
| 20260507044529 | 58 | 210 | 0.0 | 11.0 | 0.00 | 0.00 | 0.00 | 76 | 1014.6 |
| 20260507043026 | 58 | 226 | 1.0 | 7.0 | 0.00 | 0.00 | 0.00 | 76 | 1014.4 |
| 20260507041529 | 58 | 0 | 0.0 | 8.0 | 0.00 | 0.00 | 0.00 | 78 | 1014.2 |
| 20260507040028 | 58 | 0 | 1.0 | 10.0 | 0.00 | 0.00 | 0.00 | 79 | 1013.9 |
| 20260507034535 | 57 | 197 | 3.0 | 11.0 | 0.00 | 0.00 | 0.00 | 80 | 1014.1 |
| 20260507033038 | 57 | 0 | 1.0 | 10.0 | 0.00 | 0.00 | 0.00 | 83 | 1014.1 |
| 20260507031527 | 55 | 121 | 1.0 | 7.0 | 0.00 | 0.00 | 0.00 | 85 | 1014.4 |
| 20260507030029 | 56 | 0 | 0.0 | 6.0 | 0.00 | 0.00 | 0.00 | 84 | 1014.4 |
| 20260507024533 | 56 | 0 | 1.0 | 11.0 | 0.00 | 0.00 | 0.00 | 84 | 1014.4 |
| 20260507023034 | 56 | 0 | 1.0 | 12.0 | 0.00 | 0.00 | 0.00 | 84 | 1014.5 |
| 20260507021528 | 56 | 199 | 2.0 | 9.0 | 0.00 | 0.00 | 0.00 | 84 | 1014.6 |
| 20260507020026 | 55 | 153 | 1.0 | 11.0 | 0.00 | 0.00 | 0.00 | 83 | 1014.5 |
| 20260507014529 | 55 | 0 | 0.0 | 9.0 | 0.00 | 0.00 | 0.00 | 83 | 1014.5 |
| 20260507013028 | 55 | 0 | 1.0 | 13.0 | 0.00 | 0.00 | 0.00 | 82 | 1014.3 |
| 20260507011533 | 56 | 200 | 1.0 | 10.0 | 0.00 | 0.00 | 0.00 | 80 | 1014.0 |
| 20260507010030 | 55 | 224 | 1.0 | 14.0 | 0.00 | 0.00 | 0.00 | 80 | 1013.9 |
| 20260507004536 | 55 | 219 | 1.0 | 12.0 | 0.00 | 0.00 | 0.00 | 79 | 1014.2 |
| 20260507003028 | 55 | 177 | 1.0 | 9.0 | 0.00 | 0.00 | 0.00 | 77 | 1014.3 |
| 20260507001530 | 55 | 126 | 1.0 | 8.0 | 0.00 | 0.00 | 0.00 | 76 | 1014.4 |
| 20260507000030 | 55 | 184 | 0.0 | 14.0 | 0.00 | 0.00 | 0.00 | 75 | 1014.5 |
| 20260506234528 | 55 | 0 | 0.0 | 7.0 | 0.00 | 0.00 | 0.00 | 75 | 1014.7 |
| 20260506233026 | 55 | 0 | 0.0 | 2.0 | 0.00 | 0.00 | 0.00 | 79 | 1015.2 |
| 20260506231528 | 55 | 0 | 0.0 | 2.0 | 0.00 | 0.00 | 0.00 | 77 | 1015.2 |
| 20260506230031 | 55 | 0 | 0.0 | 1.0 | 0.00 | 0.00 | 0.00 | 77 | 1015.3 |
| 20260506224530 | 56 | 0 | 0.0 | 5.0 | 0.00 | 0.00 | 0.00 | 75 | 1015.5 |
| 20260506223029 | 56 | 0 | 0.0 | 3.0 | 0.00 | 0.00 | 0.00 | 74 | 1015.4 |
| 20260506221529 | 56 | 0 | 0.0 | 4.0 | 0.00 | 0.00 | 0.00 | 77 | 1015.5 |
| 20260506220034 | 56 | 0 | 0.0 | 0.0 | 0.00 | 0.00 | 0.00 | 77 | 1015.5 |
| 20260506214528 | 56 | 130 | 0.0 | 5.0 | 0.00 | 0.00 | 0.00 | 77 | 1015.6 |
| 20260506213031 | 56 | 248 | 0.0 | 4.0 | 0.00 | 0.00 | 0.00 | 77 | 1015.7 |
| 20260506211532 | 56 | 0 | 0.0 | 3.0 | 0.00 | 0.00 | 0.00 | 79 | 1015.8 |
| 20260506210027 | 57 | 0 | 0.0 | 8.0 | 0.00 | 0.00 | 0.00 | 78 | 1016.0 |